Time;durP1;ratioP1;P1;durP2;ratioP2;P2;SDS_P1;SDS_P2;PMS_P1;PMS_P2;Temp;Humidity;BMP_temperature;BMP_pressure;BME280_temperature;BME280_humidity;BME280_pressure;Samples;Min_cycle;Max_cycle;Signal;HPM_P1;HPM_P2
2024/04/11 00:01:28;;;;;;;7.85;4.80;;;;;;;8.28;97.20;102158.03;5613815;26;20350;-73
2024/04/11 00:03:58;;;;;;;8.57;4.72;;;;;;;8.10;96.73;102148.50;5614717;26;19998;-74
2024/04/11 00:06:28;;;;;;;9.57;4.80;;;;;;;7.85;97.75;102151.94;5617786;26;20010;-73
2024/04/11 00:08:59;;;;;;;8.55;4.90;;;;;;;7.97;99.13;102145.88;5617159;26;20015;-74
2024/04/11 00:11:29;;;;;;;12.20;5.13;;;;;;;7.81;99.15;102147.59;5615864;26;20404;-74
2024/04/11 00:13:59;;;;;;;11.82;5.63;;;;;;;7.59;100.00;102148.47;5614367;26;20010;-74
2024/04/11 00:16:30;;;;;;;11.25;5.32;;;;;;;7.53;100.00;102148.44;5615456;26;20335;-74
2024/04/11 00:19:00;;;;;;;8.85;5.57;;;;;;;7.70;100.00;102146.72;5615535;26;20003;-73
2024/04/11 00:21:31;;;;;;;9.18;5.32;;;;;;;7.72;100.00;102155.38;5618231;26;20003;-71
2024/04/11 00:24:02;;;;;;;10.05;5.55;;;;;;;7.74;100.00;102152.81;5617777;26;20011;-74
2024/04/11 00:26:32;;;;;;;8.75;5.25;;;;;;;7.64;100.00;102153.66;5617873;26;19999;-74
2024/04/11 00:29:03;;;;;;;9.02;5.00;;;;;;;7.88;100.00;102146.72;5617370;26;20007;-74
2024/04/11 00:31:33;;;;;;;8.93;5.20;;;;;;;8.08;98.59;102145.00;5614794;26;20003;-72
2024/04/11 00:34:15;;;;;;;8.18;5.03;;;;;;;7.88;98.14;102154.53;5617099;26;20013;-74
2024/04/11 00:36:45;;;;;;;9.93;5.07;;;;;;;7.82;98.94;102157.16;5614864;26;20005;-74
2024/04/11 00:39:20;;;;;;;9.63;5.20;;;;;;;7.94;99.76;102146.75;5615870;26;20014;-73
2024/04/11 00:41:52;;;;;;;12.23;5.32;;;;;;;7.86;98.44;102148.47;5615239;26;20464;-72
2024/04/11 00:44:24;;;;;;;8.13;4.82;;;;;;;7.81;99.15;102152.81;5616907;26;20359;-74
2024/04/11 00:46:55;;;;;;;8.32;5.03;;;;;;;7.91;98.63;102146.72;5615016;26;20052;-74
2024/04/11 00:49:26;;;;;;;9.00;4.82;;;;;;;7.87;98.26;102152.81;5604283;26;20340;-74
2024/04/11 00:51:58;;;;;;;10.52;4.65;;;;;;;7.65;98.76;102148.47;5609628;26;20473;-74
2024/04/11 00:54:28;;;;;;;8.85;5.25;;;;;;;7.54;99.84;102144.97;5618510;26;19999;-73
2024/04/11 00:57:01;;;;;;;11.00;5.13;;;;;;;7.49;100.00;102154.50;5618768;26;20014;-73
2024/04/11 00:59:32;;;;;;;8.90;5.20;;;;;;;7.66;99.72;102150.19;5579518;26;20450;-73
2024/04/11 01:02:04;;;;;;;8.02;5.07;;;;;;;7.70;98.23;102151.94;5618234;26;20015;-74
2024/04/11 01:04:35;;;;;;;9.65;4.72;;;;;;;7.62;98.22;102143.25;5615596;26;20518;-74
2024/04/11 01:07:10;;;;;;;11.95;5.07;;;;;;;7.58;98.96;102148.44;5584936;26;20046;-73
2024/04/11 01:09:43;;;;;;;8.38;5.05;;;;;;;7.70;96.76;102145.88;5615903;26;20311;-73
2024/04/11 01:12:18;;;;;;;12.82;4.95;;;;;;;7.58;97.84;102151.03;5625241;26;19991;-73
2024/04/11 01:14:49;;;;;;;9.02;3.80;;;;;;;7.54;98.50;102134.56;5624558;26;19995;-73
2024/04/11 01:17:21;;;;;;;9.15;4.82;;;;;;;7.42;98.50;102136.28;5622954;26;20009;-72
2024/04/11 01:19:51;;;;;;;9.23;4.72;;;;;;;7.58;98.20;102130.22;5625637;26;20476;-74
2024/04/11 01:22:21;;;;;;;8.85;4.70;;;;;;;7.40;97.38;102125.88;5621500;26;19990;-71
2024/04/11 01:24:52;;;;;;;7.68;4.78;;;;;;;7.10;99.32;102137.06;5621043;26;20376;-74
2024/04/11 01:27:23;;;;;;;8.63;5.15;;;;;;;7.09;100.00;102137.94;5585855;26;19995;-72
2024/04/11 01:29:53;;;;;;;7.88;5.05;;;;;;;7.09;100.00;102148.31;5626043;26;20670;-74
2024/04/11 01:32:25;;;;;;;12.50;5.32;;;;;;;7.28;100.00;102127.56;5622609;26;19991;-74
2024/04/11 01:34:59;;;;;;;8.65;5.05;;;;;;;7.41;99.24;102124.13;5623211;26;20323;-74
2024/04/11 01:37:29;;;;;;;10.63;5.28;;;;;;;7.42;98.39;102129.34;5620290;26;20310;-74
2024/04/11 01:39:59;;;;;;;9.40;4.90;;;;;;;7.43;97.14;102125.88;5623089;26;19991;-74
2024/04/11 01:42:30;;;;;;;8.48;4.63;;;;;;;7.45;97.84;102125.88;5624117;26;20003;-74
2024/04/11 01:45:01;;;;;;;8.20;5.30;;;;;;;7.32;99.58;102130.19;5623043;26;19995;-73
2024/04/11 01:47:31;;;;;;;13.48;5.50;;;;;;;7.37;99.97;102128.44;5623712;26;20255;-73
2024/04/11 01:50:03;;;;;;;14.60;5.65;;;;;;;7.26;100.00;102131.91;5623339;26;20021;-74
2024/04/11 01:52:33;;;;;;;13.38;5.68;;;;;;;7.26;99.79;102121.50;5590183;26;20363;-73
2024/04/11 01:55:04;;;;;;;11.20;5.13;;;;;;;7.38;99.42;102116.34;5626085;26;20026;-73
2024/04/11 01:57:37;;;;;;;8.40;5.03;;;;;;;7.18;98.44;102115.41;5622614;26;20003;-73
2024/04/11 02:00:13;;;;;;;9.00;4.82;;;;;;;7.39;97.40;102120.66;5587195;26;20003;-74
2024/04/11 02:02:43;;;;;;;8.77;4.78;;;;;;;7.42;97.19;102118.94;5557521;26;20461;-71
2024/04/11 02:05:14;;;;;;;7.90;5.55;;;;;;;7.33;97.79;102126.72;5623254;26;20013;-73
2024/04/11 02:07:45;;;;;;;9.07;5.60;;;;;;;7.14;99.39;102121.44;5623393;26;20056;-73
2024/04/11 02:10:15;;;;;;;9.02;5.22;;;;;;;7.35;98.54;102124.97;5625419;26;20005;-74
2024/04/11 02:12:46;;;;;;;8.43;5.20;;;;;;;7.34;98.69;102128.44;5622295;26;20018;-74
2024/04/11 02:15:17;;;;;;;12.20;5.05;;;;;;;7.33;98.46;102131.06;5623271;26;20338;-73
2024/04/11 02:17:47;;;;;;;8.70;5.50;;;;;;;7.39;98.24;102134.53;5585508;26;20017;-74
2024/04/11 02:20:17;;;;;;;11.65;5.43;;;;;;;7.32;98.61;102130.19;5584804;26;20010;-74
2024/04/11 02:22:53;;;;;;;23.98;11.15;;;;;;;7.24;100.00;102137.97;5621432;26;20013;-74
2024/04/11 02:25:24;;;;;;;24.00;14.15;;;;;;;7.35;100.00;102134.53;5623389;26;20079;-74
2024/04/11 02:27:54;;;;;;;9.35;5.40;;;;;;;7.35;98.70;102130.19;5621206;26;20006;-73
2024/04/11 02:30:26;;;;;;;8.50;4.90;;;;;;;7.48;96.65;102124.16;5588835;26;20453;-71
2024/04/11 02:32:56;;;;;;;11.07;5.25;;;;;;;7.44;96.37;102119.81;5620040;26;20071;-74
2024/04/11 02:35:26;;;;;;;8.25;4.97;;;;;;;7.30;96.87;102118.91;5623207;26;20003;-73
2024/04/11 02:37:58;;;;;;;10.30;5.43;;;;;;;7.26;98.31;102126.69;5585155;26;20035;-74
2024/04/11 02:40:28;;;;;;;8.90;5.13;;;;;;;7.28;98.28;102124.13;5621174;26;20079;-72
2024/04/11 02:42:58;;;;;;;8.02;5.30;;;;;;;7.22;98.68;102136.22;5588721;26;20007;-74
2024/04/11 02:45:28;;;;;;;11.02;5.20;;;;;;;7.14;99.40;102136.19;5620310;26;20088;-73
2024/04/11 02:47:59;;;;;;;12.45;5.50;;;;;;;7.13;100.00;102134.47;5582644;26;20108;-74
2024/04/11 02:50:29;;;;;;;11.52;5.57;;;;;;;7.06;100.00;102137.88;5584537;26;20000;-74
2024/04/11 02:52:59;;;;;;;12.38;5.40;;;;;;;7.13;100.00;102139.66;5621318;26;20019;-74
2024/04/11 02:55:31;;;;;;;9.23;5.75;;;;;;;7.14;100.00;102144.84;5590621;26;20346;-74
2024/04/11 02:58:02;;;;;;;9.77;5.43;;;;;;;7.30;99.78;102128.44;5622763;26;20750;-74
2024/04/11 03:00:32;;;;;;;9.07;5.43;;;;;;;7.35;97.20;102130.19;5622174;26;20249;-74
2024/04/11 03:03:03;;;;;;;10.45;5.20;;;;;;;7.30;97.71;102128.44;5589360;26;20007;-74
2024/04/11 03:05:36;;;;;;;11.55;5.05;;;;;;;7.36;97.33;102129.31;5621847;26;20027;-74
2024/04/11 03:08:06;;;;;;;11.63;5.43;;;;;;;7.31;98.08;102131.06;5622582;26;20015;-74
2024/04/11 03:10:41;;;;;;;9.98;5.22;;;;;;;7.19;98.82;102135.34;5622381;26;20018;-74
2024/04/11 03:13:12;;;;;;;9.27;5.10;;;;;;;7.29;99.21;102140.59;5616687;26;19999;-71
2024/04/11 03:15:42;;;;;;;8.45;4.72;;;;;;;7.24;98.55;102145.78;5618051;26;20458;-71
2024/04/11 03:18:14;;;;;;;9.77;5.15;;;;;;;7.35;97.82;102134.53;5590346;26;19999;-74
2024/04/11 03:20:52;;;;;;;8.38;5.35;;;;;;;7.38;97.18;102131.94;5614655;26;20014;-74
2024/04/11 03:23:24;;;;;;;9.07;5.60;;;;;;;7.33;96.77;102124.13;5611203;26;20164;-74
2024/04/11 03:25:55;;;;;;;9.77;5.22;;;;;;;7.27;97.32;102130.19;5613421;26;20003;-72
2024/04/11 03:28:26;;;;;;;12.00;5.75;;;;;;;7.29;98.23;102137.97;5619326;26;20409;-72
2024/04/11 03:31:00;;;;;;;10.90;6.10;;;;;;;7.21;98.65;102135.34;5614305;26;20018;-74
2024/04/11 03:33:35;;;;;;;13.50;5.53;;;;;;;7.08;99.76;102134.44;5613918;26;20346;-74
2024/04/11 03:36:09;;;;;;;10.95;5.32;;;;;;;7.07;100.00;102137.06;5615195;26;20039;-73
2024/04/11 03:38:40;;;;;;;6.17;3.63;;;;;;;6.99;100.00;102128.34;5612090;26;20527;-74
2024/04/11 03:41:11;;;;;;;11.25;5.20;;;;;;;7.26;100.00;102112.84;5616008;26;20002;-74
2024/04/11 03:43:41;;;;;;;8.18;5.25;;;;;;;7.20;98.22;102118.00;5614337;26;20743;-73
2024/04/11 03:46:18;;;;;;;8.75;5.50;;;;;;;7.27;98.42;102118.03;5619837;26;19999;-74
2024/04/11 03:48:56;;;;;;;9.43;5.10;;;;;;;7.33;97.90;102118.06;5611163;26;20006;-73
2024/04/11 03:51:37;;;;;;;8.80;5.18;;;;;;;7.34;97.56;102112.84;5615159;26;20013;-72
2024/04/11 03:54:11;;;;;;;8.20;5.20;;;;;;;7.26;97.99;102118.03;5615167;26;20350;-73
2024/04/11 03:56:41;;;;;;;9.05;5.15;;;;;;;7.09;98.98;102109.31;5615019;26;20026;-73
2024/04/11 03:59:11;;;;;;;10.88;5.80;;;;;;;6.79;100.00;102117.84;5618814;26;20823;-74
2024/04/11 04:01:42;;;;;;;12.70;5.50;;;;;;;6.93;100.00;102121.38;5620338;26;19999;-72
2024/04/11 04:04:13;;;;;;;10.70;5.90;;;;;;;7.15;100.00;102122.34;5619519;26;20006;-74
2024/04/11 04:06:43;;;;;;;12.35;6.05;;;;;;;7.06;100.00;102117.97;5617375;26;20513;-72
2024/04/11 04:09:15;;;;;;;8.70;5.25;;;;;;;7.01;100.00;102114.50;5620083;26;20046;-74
2024/04/11 04:11:45;;;;;;;11.27;5.88;;;;;;;7.15;100.00;102106.75;5580846;26;20560;-74
2024/04/11 04:14:16;;;;;;;15.38;5.95;;;;;;;7.20;99.98;102110.19;5621573;26;20073;-74
2024/04/11 04:16:46;;;;;;;9.55;5.47;;;;;;;7.27;99.80;102111.97;5617230;26;20361;-74
2024/04/11 04:19:16;;;;;;;12.80;5.80;;;;;;;7.29;99.86;102111.97;5617373;26;19999;-71
2024/04/11 04:21:46;;;;;;;9.45;5.55;;;;;;;7.31;99.23;102120.66;5615245;26;20444;-75
2024/04/11 04:24:17;;;;;;;12.02;5.57;;;;;;;7.33;99.07;102118.91;5622121;26;20034;-73
2024/04/11 04:26:48;;;;;;;8.95;5.20;;;;;;;7.48;98.63;102124.16;5615262;26;20011;-74
2024/04/11 04:29:19;;;;;;;11.13;5.65;;;;;;;7.42;98.57;102116.34;5623185;26;20010;-74
2024/04/11 04:31:49;;;;;;;11.95;5.45;;;;;;;7.71;98.91;102124.19;5614624;26;20075;-73
2024/04/11 04:34:21;;;;;;;10.75;5.10;;;;;;;7.76;97.46;102118.13;5620598;26;20423;-74
2024/04/11 04:36:51;;;;;;;9.27;5.45;;;;;;;7.88;96.60;102125.06;5605940;26;19999;-73
2024/04/11 04:39:30;;;;;;;10.27;4.70;;;;;;;7.97;95.03;102125.91;5619119;26;19998;-74
2024/04/11 04:42:02;;;;;;;10.32;5.43;;;;;;;7.88;95.31;102120.69;5623658;26;20627;-74
2024/04/11 04:44:32;;;;;;;9.52;5.25;;;;;;;8.00;95.44;102109.41;5588303;26;19999;-72
2024/04/11 04:47:15;;;;;;;9.48;5.28;;;;;;;7.83;95.29;102122.44;5621113;26;20003;-73
2024/04/11 04:49:46;;;;;;;9.30;5.18;;;;;;;7.71;97.75;102116.38;5621726;26;20354;-74
2024/04/11 04:52:18;;;;;;;8.85;5.13;;;;;;;7.72;98.29;102116.34;5622548;26;20009;-74
2024/04/11 04:54:51;;;;;;;7.53;5.13;;;;;;;7.99;96.12;102118.09;5615624;26;20014;-74
2024/04/11 04:57:21;;;;;;;8.50;4.78;;;;;;;8.15;95.44;102125.03;5626199;26;19995;-74
2024/04/11 04:59:51;;;;;;;9.70;5.47;;;;;;;8.27;95.19;102117.25;5619398;26;20461;-74
2024/04/11 05:02:24;;;;;;;8.80;5.40;;;;;;;8.32;94.73;102120.69;5624305;26;19995;-74
2024/04/11 05:04:54;;;;;;;10.45;5.20;;;;;;;8.38;95.33;102118.94;5619146;26;20474;-74
2024/04/11 05:07:24;;;;;;;8.63;4.90;;;;;;;8.63;94.89;102111.94;5623687;26;19999;-74
2024/04/11 05:09:54;;;;;;;8.95;5.00;;;;;;;8.77;94.02;102107.56;5585845;26;20011;-75
2024/04/11 05:12:27;;;;;;;8.27;4.68;;;;;;;9.03;92.51;102100.50;5622394;26;20064;-74
2024/04/11 05:14:57;;;;;;;10.13;5.32;;;;;;;9.12;92.75;102101.31;5618172;26;20018;-74
2024/04/11 05:17:27;;;;;;;8.73;4.75;;;;;;;9.24;91.79;102096.00;5645852;21;20010;-70
2024/04/11 05:19:58;;;;;;;10.85;4.68;;;;;;;9.30;90.39;102102.06;5639850;26;20348;-72
2024/04/11 05:22:28;;;;;;;7.80;4.20;;;;;;;9.50;90.36;102097.56;5641721;26;19999;-70
2024/04/11 05:24:58;;;;;;;8.15;4.22;;;;;;;9.67;88.43;102098.31;5646189;26;20001;-72
2024/04/11 05:27:28;;;;;;;7.20;4.18;;;;;;;10.06;87.16;102091.94;5643463;26;20009;-70
2024/04/11 05:30:01;;;;;;;8.95;3.72;;;;;;;10.40;85.89;102093.34;5650689;26;20001;-73
2024/04/11 05:32:31;;;;;;;6.90;4.03;;;;;;;10.23;86.13;102090.03;5683728;26;20021;-72
2024/04/11 05:35:06;;;;;;;6.05;4.00;;;;;;;10.06;86.79;102094.56;5680077;26;20318;-72
2024/04/11 05:37:36;;;;;;;9.67;4.30;;;;;;;10.14;88.13;102080.53;5682458;26;20010;-70
2024/04/11 05:40:07;;;;;;;6.82;4.70;;;;;;;9.86;88.91;102083.38;5685691;26;20276;-73
2024/04/11 05:42:44;;;;;;;7.60;3.97;;;;;;;10.17;88.92;102084.88;5681375;26;20017;-71
2024/04/11 05:45:19;;;;;;;8.48;4.22;;;;;;;10.21;88.65;102083.97;5687018;26;20001;-72
2024/04/11 05:47:51;;;;;;;6.57;4.00;;;;;;;10.13;89.39;102072.72;5680094;26;19996;-69
2024/04/11 05:50:22;;;;;;;7.35;4.47;;;;;;;10.04;90.91;102068.47;5687867;26;20001;-72
2024/04/11 05:52:52;;;;;;;9.80;4.05;;;;;;;10.19;90.23;102068.28;5677540;26;19994;-72
2024/04/11 05:55:23;;;;;;;9.98;4.45;;;;;;;10.18;90.80;102066.56;5686953;26;19993;-72
2024/04/11 05:57:54;;;;;;;7.78;3.70;;;;;;;10.32;88.99;102066.44;5675971;26;19993;-72
2024/04/11 06:00:29;;;;;;;6.68;3.58;;;;;;;10.40;88.91;102067.19;5685100;26;20005;-71
2024/04/11 06:03:08;;;;;;;5.53;3.45;;;;;;;10.82;88.37;102062.31;5673838;26;20068;-72
2024/04/11 06:05:39;;;;;;;7.50;3.20;;;;;;;11.00;87.86;102063.84;5682266;26;20005;-71
2024/04/11 06:08:09;;;;;;;5.60;2.75;;;;;;;11.39;88.08;102065.00;5679053;26;19998;-72
2024/04/11 06:10:40;;;;;;;7.78;2.90;;;;;;;11.44;87.93;102059.69;5677928;26;20004;-72
2024/04/11 06:13:11;;;;;;;6.20;2.72;;;;;;;11.50;87.45;102055.25;5653367;26;20017;-74
2024/04/11 06:15:42;;;;;;;6.35;2.63;;;;;;;11.62;85.60;102060.28;5682052;26;20488;-73
2024/04/11 06:18:14;;;;;;;6.28;2.75;;;;;;;12.11;85.18;102065.59;5690068;26;20030;-72
2024/04/11 06:20:45;;;;;;;7.50;2.95;;;;;;;11.74;85.62;102062.72;5683756;26;19998;-74
2024/04/11 06:23:15;;;;;;;5.72;2.70;;;;;;;12.13;85.36;102063.78;5690405;26;20012;-73
2024/04/11 06:25:46;;;;;;;7.88;2.85;;;;;;;12.36;84.96;102066.84;5683236;26;20013;-73
2024/04/11 06:28:18;;;;;;;7.90;2.78;;;;;;;12.14;84.43;102069.00;5691379;26;19993;-74
2024/04/11 06:30:49;;;;;;;5.70;2.60;;;;;;;12.55;83.88;102074.34;5677251;26;20413;-71
2024/04/11 06:33:21;;;;;;;6.93;2.53;;;;;;;12.52;83.71;102076.16;5627080;26;20021;-70
2024/04/11 06:35:52;;;;;;;8.57;2.80;;;;;;;12.54;84.73;102088.34;5685595;26;20119;-73
2024/04/11 06:38:23;;;;;;;7.68;2.83;;;;;;;12.52;84.73;102079.66;5682536;26;20008;-73
2024/04/11 06:40:53;;;;;;;6.50;2.33;;;;;;;13.12;82.16;102078.41;5677767;26;20030;-73
2024/04/11 06:43:25;;;;;;;6.75;2.25;;;;;;;13.43;81.71;102084.69;5688399;26;20002;-73
2024/04/11 06:45:55;;;;;;;6.88;2.30;;;;;;;13.49;80.05;102079.28;5678881;26;20002;-73
2024/04/11 06:48:26;;;;;;;5.90;2.20;;;;;;;13.78;78.89;102082.09;5681173;26;20372;-73
2024/04/11 06:50:58;;;;;;;5.55;2.20;;;;;;;14.27;77.41;102079.97;5683621;26;20051;-73
2024/04/11 06:53:30;;;;;;;6.40;2.00;;;;;;;15.51;74.85;102071.03;5685560;26;20049;-71
2024/04/11 06:56:00;;;;;;;7.20;2.35;;;;;;;16.17;71.34;102074.03;5643592;26;20014;-73
2024/04/11 06:58:32;;;;;;;6.78;1.55;;;;;;;16.43;68.71;102072.25;5682889;26;20428;-71
2024/04/11 07:01:04;;;;;;;4.65;1.60;;;;;;;16.49;68.41;102072.03;5684956;26;22162;-74
2024/04/11 07:03:39;;;;;;;6.22;1.50;;;;;;;16.74;67.98;102077.28;5684076;26;20094;-74
2024/04/11 07:06:16;;;;;;;6.85;1.75;;;;;;;16.03;70.34;102086.84;5688084;26;20001;-73
2024/04/11 07:08:46;;;;;;;4.82;1.60;;;;;;;15.78;71.66;102085.94;5648179;26;19998;-73
2024/04/11 07:11:19;;;;;;;7.47;1.73;;;;;;;15.44;70.49;102096.69;5669467;26;20089;-72
2024/04/11 07:13:50;;;;;;;3.67;1.23;;;;;;;15.09;68.71;102102.16;5682185;26;19998;-73
2024/04/11 07:16:26;;;;;;;5.03;1.58;;;;;;;14.99;68.93;102107.75;5687810;26;20438;-73
2024/04/11 07:18:56;;;;;;;4.57;1.10;;;;;;;14.90;67.84;102108.88;5652495;26;20008;-72
2024/04/11 07:21:30;;;;;;;5.93;1.40;;;;;;;14.81;68.59;102112.66;5681556;26;20387;-72
2024/04/11 07:24:03;;;;;;;4.45;1.55;;;;;;;14.83;67.25;102102.03;5679304;26;20005;-72
2024/04/11 07:26:36;;;;;;;5.60;1.23;;;;;;;14.97;68.26;102105.13;5674545;26;20427;-72
2024/04/11 07:29:08;;;;;;;6.13;1.30;;;;;;;14.82;68.10;102103.84;5673364;26;20009;-73
2024/04/11 07:31:40;;;;;;;6.15;1.40;;;;;;;14.79;68.72;102096.03;5679119;26;19994;-73
2024/04/11 07:34:11;;;;;;;4.25;1.15;;;;;;;14.81;67.62;102099.50;5680146;26;20009;-73
2024/04/11 07:36:44;;;;;;;4.15;1.20;;;;;;;14.89;67.77;102112.41;5682572;26;20073;-72
2024/04/11 07:39:20;;;;;;;8.73;1.70;;;;;;;15.08;67.04;102108.31;5687203;26;20478;-73
2024/04/11 07:42:00;;;;;;;4.63;1.42;;;;;;;15.08;68.58;102108.31;5680161;26;20001;-73
2024/04/11 07:44:31;;;;;;;5.90;1.38;;;;;;;14.70;67.33;102106.81;5677893;26;20365;-73
2024/04/11 07:47:05;;;;;;;5.70;1.35;;;;;;;14.99;66.79;102098.06;5680353;26;20042;-73
2024/04/11 07:49:37;;;;;;;6.90;1.40;;;;;;;15.04;67.74;102098.78;5681603;26;19997;-74
2024/04/11 07:52:10;;;;;;;5.72;1.33;;;;;;;15.02;66.44;102113.75;5683075;26;20099;-74
2024/04/11 07:54:42;;;;;;;4.03;1.10;;;;;;;15.12;64.93;102115.22;5672464;26;19997;-73
2024/04/11 07:57:13;;;;;;;6.22;1.48;;;;;;;15.52;64.90;102115.75;5676562;26;19990;-73
2024/04/11 07:59:44;;;;;;;5.07;1.45;;;;;;;15.78;63.18;102113.19;5677114;26;20306;-72
2024/04/11 08:02:14;;;;;;;4.43;1.23;;;;;;;15.71;63.53;102111.63;5679743;26;20026;-72
2024/04/11 08:04:45;;;;;;;8.50;1.48;;;;;;;15.64;63.19;102115.38;5674842;26;20380;-70
2024/04/11 08:07:15;;;;;;;6.03;1.30;;;;;;;15.44;63.45;102119.53;5672433;26;20013;-73
2024/04/11 08:09:46;;;;;;;5.70;1.10;;;;;;;15.08;62.01;102120.63;5669441;26;20674;-73
2024/04/11 08:12:17;;;;;;;4.35;1.10;;;;;;;15.15;61.75;102123.03;5668314;26;20055;-73
2024/04/11 08:14:47;;;;;;;8.20;1.30;;;;;;;14.81;62.14;102124.06;5670433;26;20678;-71
2024/04/11 08:17:17;;;;;;;5.07;1.33;;;;;;;14.78;62.51;102120.63;5668226;26;20009;-72
2024/04/11 08:19:48;;;;;;;5.53;1.50;;;;;;;14.83;63.12;102128.34;5665349;26;20074;-74
2024/04/11 08:22:18;;;;;;;5.78;1.20;;;;;;;14.88;63.89;102136.97;5669876;26;20002;-74
2024/04/11 08:24:49;;;;;;;7.88;1.40;;;;;;;14.93;65.02;102137.72;5675476;26;20747;-73
2024/04/11 08:27:20;;;;;;;8.20;1.23;;;;;;;15.23;64.29;102131.59;5677512;26;20033;-74
2024/04/11 08:29:51;;;;;;;4.07;1.25;;;;;;;15.26;63.17;102127.97;5671956;26;20119;-72
2024/04/11 08:32:21;;;;;;;4.60;1.40;;;;;;;15.00;63.61;102131.38;5674332;26;20002;-73
2024/04/11 08:34:52;;;;;;;6.03;1.50;;;;;;;15.21;64.12;102141.28;5646885;26;19995;-73
2024/04/11 08:37:22;;;;;;;7.30;1.55;;;;;;;14.90;63.74;102143.09;5651405;26;20073;-73
2024/04/11 08:39:53;;;;;;;5.38;1.50;;;;;;;14.87;63.82;102145.78;5671631;26;20468;-72
2024/04/11 08:42:23;;;;;;;6.97;1.55;;;;;;;14.81;63.80;102138.97;5669267;26;20013;-73
2024/04/11 08:44:57;;;;;;;4.22;1.20;;;;;;;14.90;64.09;102151.00;5680037;26;20392;-73
2024/04/11 08:47:28;;;;;;;7.72;1.48;;;;;;;15.14;63.60;102145.00;5685209;26;19997;-70
2024/04/11 08:49:58;;;;;;;4.50;1.38;;;;;;;14.91;64.63;102152.72;5676063;26;20457;-72
2024/04/11 08:52:35;;;;;;;6.53;1.10;;;;;;;14.71;64.91;102146.28;5669743;26;19998;-72
2024/04/11 08:55:06;;;;;;;4.90;1.17;;;;;;;14.73;64.73;102143.59;5662188;26;20345;-73
2024/04/11 08:57:37;;;;;;;7.10;1.42;;;;;;;14.79;65.85;102141.63;5674566;26;19994;-73
2024/04/11 09:00:13;;;;;;;3.70;1.00;;;;;;;14.86;65.91;102143.22;5673950;26;20045;-73
2024/04/11 09:02:44;;;;;;;4.63;1.38;;;;;;;14.68;66.13;102148.13;5673751;26;20008;-73
2024/04/11 09:05:14;;;;;;;4.80;1.00;;;;;;;14.63;66.12;102153.50;5681026;26;19994;-72
2024/04/11 09:07:47;;;;;;;5.28;1.40;;;;;;;14.64;66.27;102151.75;5666426;26;20020;-70
2024/04/11 09:10:19;;;;;;;6.90;1.20;;;;;;;14.65;65.78;102161.34;5678564;26;20453;-72
2024/04/11 09:12:49;;;;;;;5.70;1.50;;;;;;;14.62;65.50;102154.41;5671121;26;20002;-71
2024/04/11 09:15:19;;;;;;;4.15;1.20;;;;;;;14.36;65.18;102156.88;5636373;26;20341;-74
2024/04/11 09:17:50;;;;;;;4.60;1.10;;;;;;;14.38;66.36;102151.53;5678934;26;19990;-71
2024/04/11 09:20:24;;;;;;;5.28;1.60;;;;;;;14.29;66.37;102160.53;5674562;26;19998;-73
2024/04/11 09:22:59;;;;;;;3.25;0.98;;;;;;;14.39;66.98;102162.03;5659141;26;22246;-72
2024/04/11 09:25:30;;;;;;;8.00;1.40;;;;;;;14.37;66.11;102166.50;5664160;26;20005;-73
2024/04/11 09:28:00;;;;;;;5.40;1.20;;;;;;;14.32;65.85;102160.50;5668185;26;19993;-72
2024/04/11 09:30:34;;;;;;;8.07;1.40;;;;;;;14.42;67.39;102166.38;5674173;26;19998;-72
2024/04/11 09:33:10;;;;;;;8.02;1.30;;;;;;;14.46;66.38;102162.75;5671623;26;20002;-72
2024/04/11 09:35:46;;;;;;;7.82;1.38;;;;;;;14.27;66.72;102167.59;5676451;26;20012;-71
2024/04/11 09:38:19;;;;;;;6.60;1.30;;;;;;;14.50;67.18;102161.75;5667726;26;20009;-72
2024/04/11 09:40:55;;;;;;;4.82;1.15;;;;;;;14.48;65.79;102166.19;5666206;26;20009;-71
2024/04/11 09:43:28;;;;;;;8.43;1.50;;;;;;;14.51;66.45;102163.50;5671673;26;19998;-71
2024/04/11 09:46:06;;;;;;;5.43;1.33;;;;;;;14.44;67.24;102168.03;5667801;26;20004;-72
2024/04/11 09:48:41;;;;;;;4.93;1.25;;;;;;;14.60;66.77;102172.00;5664246;26;20002;-70
2024/04/11 09:51:15;;;;;;;;;;;;;;;14.57;65.58;102165.97;5671657;26;20013;-74
2024/04/11 09:53:46;;;;;;;3.88;1.00;;;;;;;14.58;66.92;102170.34;5674044;26;20378;-70
2024/04/11 09:56:18;;;;;;;7.75;1.42;;;;;;;14.69;67.52;102176.16;5671063;26;20363;-73
2024/04/11 09:58:48;;;;;;;8.63;1.52;;;;;;;14.78;67.61;102173.28;5661144;26;20519;-73
2024/04/11 10:01:30;;;;;;;4.75;1.30;;;;;;;14.85;66.95;102171.28;5661263;26;20278;-72
2024/04/11 10:04:04;;;;;;;6.25;1.38;;;;;;;14.78;66.60;102181.19;5668356;26;19994;-73
2024/04/11 10:06:41;;;;;;;5.65;1.50;;;;;;;15.00;66.20;102168.25;5673950;26;19990;-71
2024/04/11 10:09:17;;;;;;;10.25;1.30;;;;;;;15.09;67.12;102168.00;5667363;26;20381;-72
2024/04/11 10:11:51;;;;;;;4.00;1.33;;;;;;;15.21;66.96;102164.97;5670143;26;20013;-72
2024/04/11 10:14:28;;;;;;;7.53;1.67;;;;;;;15.28;67.44;102174.44;5668095;26;20348;-73
2024/04/11 10:17:02;;;;;;;7.47;1.73;;;;;;;15.32;65.64;102170.00;5654109;26;20010;-74
2024/04/11 10:19:38;;;;;;;4.80;1.42;;;;;;;15.53;65.81;102169.34;5666896;26;20010;-73
2024/04/11 10:22:15;;;;;;;3.13;0.90;;;;;;;15.55;66.50;102173.63;5670516;26;20006;-74
2024/04/11 10:24:49;;;;;;;7.50;1.50;;;;;;;15.46;65.29;102168.66;5676020;26;20008;-71
2024/04/11 10:27:29;;;;;;;5.53;1.30;;;;;;;15.46;66.33;102173.94;5669851;26;20021;-72
2024/04/11 10:30:05;;;;;;;10.48;1.40;;;;;;;15.57;64.60;102171.81;5662497;26;20476;-72
2024/04/11 10:32:46;;;;;;;5.65;1.27;;;;;;;15.58;66.00;102172.69;5660395;26;19994;-73
2024/04/11 10:35:23;;;;;;;4.40;1.23;;;;;;;15.47;66.22;102175.66;5669359;26;20433;-74
2024/04/11 10:37:55;;;;;;;7.57;1.40;;;;;;;15.56;64.99;102175.38;5664653;26;19997;-73
2024/04/11 10:40:26;;;;;;;5.43;1.40;;;;;;;15.84;65.47;102165.69;5676279;26;20001;-73
2024/04/11 10:43:12;;;;;;;4.53;1.45;;;;;;;16.01;66.95;102168.66;5667362;26;20425;-73
2024/04/11 10:45:45;;;;;;;4.93;1.30;;;;;;;16.29;66.94;102164.22;5670149;26;20445;-70
2024/04/11 10:48:16;;;;;;;4.85;1.30;;;;;;;16.30;67.44;102172.97;5633227;26;20353;-73
2024/04/11 10:50:48;;;;;;;7.70;1.50;;;;;;;16.13;67.29;102176.19;5671394;26;20016;-73
2024/04/11 10:53:24;;;;;;;5.05;1.00;;;;;;;16.02;68.03;102169.53;5667853;26;19998;-74
2024/04/11 10:55:55;;;;;;;6.65;1.40;;;;;;;16.13;68.52;102168.28;5669608;26;20010;-74
2024/04/11 10:58:28;;;;;;;7.18;1.38;;;;;;;16.16;69.47;102177.84;5670888;26;20391;-73
2024/04/11 11:06:30;;;;;;;3.28;1.00;;;;;;;16.59;66.17;102167.59;5665509;26;19991;-73
2024/04/11 11:09:13;;;;;;;4.97;1.02;;;;;;;16.60;64.80;102180.75;5661362;26;20013;-73
2024/04/11 11:11:44;;;;;;;5.63;1.25;;;;;;;16.77;65.66;102177.53;5662256;26;20588;-71
2024/04/11 11:14:20;;;;;;;5.22;1.40;;;;;;;16.96;64.69;102174.19;5667120;26;20009;-73
2024/04/11 11:16:50;;;;;;;4.50;1.17;;;;;;;17.26;65.59;102173.03;5669199;26;20000;-74
2024/04/11 11:19:22;;;;;;;7.07;1.60;;;;;;;16.98;65.41;102177.63;5673919;20;19999;-72
2024/04/11 11:21:59;;;;;;;7.53;1.58;;;;;;;16.98;62.96;102172.34;5647857;26;19999;-73
2024/04/11 11:24:30;;;;;;;6.90;1.50;;;;;;;17.15;65.44;102180.50;5648536;26;19994;-71
2024/04/11 11:27:01;;;;;;;4.15;1.20;;;;;;;17.25;65.27;102176.59;5651412;26;20011;-73
2024/04/11 11:29:32;;;;;;;5.57;1.13;;;;;;;17.02;64.64;102179.22;5668416;26;19998;-73
2024/04/11 11:32:03;;;;;;;6.88;1.50;;;;;;;16.93;64.43;102176.91;5674614;26;20341;-73
2024/04/11 11:34:42;;;;;;;6.55;1.52;;;;;;;17.21;63.98;102177.63;5641292;26;20337;-73
2024/04/11 11:37:14;;;;;;;7.15;1.42;;;;;;;17.32;64.93;102176.31;5674663;26;20001;-73
2024/04/11 11:39:49;;;;;;;5.00;1.25;;;;;;;17.32;63.25;102167.53;5663908;26;20041;-73
2024/04/11 11:42:23;;;;;;;7.32;1.48;;;;;;;17.34;64.32;102171.84;5677431;26;19990;-73
2024/04/11 11:47:37;;;;;;;6.88;1.30;;;;;;;17.53;63.23;102164.09;5671386;26;19993;-73
2024/04/11 11:50:10;;;;;;;7.20;1.60;;;;;;;17.47;63.58;102175.75;5631926;26;20009;-73
2024/04/11 11:52:44;;;;;;;6.95;1.60;;;;;;;17.54;63.40;102179.91;5666501;26;20010;-70
2024/04/11 11:55:18;;;;;;;4.93;1.30;;;;;;;17.39;63.93;102171.69;5666613;26;20008;-73
2024/04/11 11:58:02;;;;;;;5.10;1.40;;;;;;;17.44;63.32;102175.00;5662491;26;20010;-72